sensor_id;sensor_type;location;lat;lon;timestamp;pressure;altitude;pressure_sealevel;temperature;humidity
46023;BME280;31756;47.936;16.224;2023-01-23T00:01:37;99826.16;;;0.67;100.00
46023;BME280;31756;47.936;16.224;2023-01-23T00:04:03;99822.06;;;0.71;100.00
46023;BME280;31756;47.936;16.224;2023-01-23T00:06:29;99821.28;;;0.72;100.00
46023;BME280;31756;47.936;16.224;2023-01-23T00:08:55;99826.00;;;0.64;100.00
46023;BME280;31756;47.936;16.224;2023-01-23T00:11:22;99827.84;;;0.68;100.00
46023;BME280;31756;47.936;16.224;2023-01-23T00:13:47;99821.22;;;0.70;100.00
46023;BME280;31756;47.936;16.224;2023-01-23T00:16:15;99822.75;;;0.67;100.00
46023;BME280;31756;47.936;16.224;2023-01-23T00:18:40;99827.03;;;0.69;100.00
46023;BME280;31756;47.936;16.224;2023-01-23T00:21:07;99821.97;;;0.68;100.00
46023;BME280;31756;47.936;16.224;2023-01-23T00:23:33;99837.94;;;0.68;100.00
46023;BME280;31756;47.936;16.224;2023-01-23T00:26:06;99837.13;;;0.69;100.00
46023;BME280;31756;47.936;16.224;2023-01-23T00:28:35;99837.13;;;0.69;100.00
46023;BME280;31756;47.936;16.224;2023-01-23T00:31:01;99832.06;;;0.68;100.00
46023;BME280;31756;47.936;16.224;2023-01-23T00:33:27;99836.25;;;0.67;100.00
46023;BME280;31756;47.936;16.224;2023-01-23T00:35:53;99811.78;;;0.66;100.00
46023;BME280;31756;47.936;16.224;2023-01-23T00:38:19;99817.75;;;0.68;100.00
46023;BME280;31756;47.936;16.224;2023-01-23T00:40:45;99807.53;;;0.65;100.00
46023;BME280;31756;47.936;16.224;2023-01-23T00:43:10;99803.25;;;0.63;100.00
46023;BME280;31756;47.936;16.224;2023-01-23T00:45:35;99801.78;;;0.68;100.00
46023;BME280;31756;47.936;16.224;2023-01-23T00:48:02;99814.31;;;0.66;100.00
46023;BME280;31756;47.936;16.224;2023-01-23T00:50:28;99799.88;;;0.62;100.00
46023;BME280;31756;47.936;16.224;2023-01-23T00:52:53;99806.97;;;0.72;100.00
46023;BME280;31756;47.936;16.224;2023-01-23T00:55:19;99805.28;;;0.71;100.00
46023;BME280;31756;47.936;16.224;2023-01-23T00:57:44;99809.09;;;0.62;100.00
46023;BME280;31756;47.936;16.224;2023-01-23T01:00:10;99805.97;;;0.67;100.00
46023;BME280;31756;47.936;16.224;2023-01-23T01:02:36;99809.28;;;0.66;100.00
46023;BME280;31756;47.936;16.224;2023-01-23T01:05:01;99812.69;;;0.68;100.00
46023;BME280;31756;47.936;16.224;2023-01-23T01:07:27;99807.44;;;0.62;100.00
46023;BME280;31756;47.936;16.224;2023-01-23T01:09:55;99817.72;;;0.67;100.00
46023;BME280;31756;47.936;16.224;2023-01-23T01:12:22;99814.25;;;0.65;100.00
46023;BME280;31756;47.936;16.224;2023-01-23T01:14:47;99820.34;;;0.70;100.00
46023;BME280;31756;47.936;16.224;2023-01-23T01:17:13;99826.38;;;0.73;100.00
46023;BME280;31756;47.936;16.224;2023-01-23T01:19:39;99810.25;;;0.70;100.00
46023;BME280;31756;47.936;16.224;2023-01-23T01:22:05;99816.06;;;0.67;100.00
46023;BME280;31756;47.936;16.224;2023-01-23T01:24:30;99827.03;;;0.69;100.00
46023;BME280;31756;47.936;16.224;2023-01-23T01:26:56;99837.25;;;0.72;100.00
46023;BME280;31756;47.936;16.224;2023-01-23T01:29:22;99822.25;;;0.75;100.00
46023;BME280;31756;47.936;16.224;2023-01-23T01:31:47;99832.22;;;0.72;100.00
46023;BME280;31756;47.936;16.224;2023-01-23T01:34:13;99823.97;;;0.76;100.00
46023;BME280;31756;47.936;16.224;2023-01-23T01:36:39;99821.38;;;0.75;100.00
46023;BME280;31756;47.936;16.224;2023-01-23T01:39:04;99816.28;;;0.73;100.00
46023;BME280;31756;47.936;16.224;2023-01-23T01:41:30;99818.75;;;0.72;100.00
46023;BME280;31756;47.936;16.224;2023-01-23T01:43:56;99812.94;;;0.74;100.00
46023;BME280;31756;47.936;16.224;2023-01-23T01:48:51;99817.13;;;0.74;100.00
46023;BME280;31756;47.936;16.224;2023-01-23T01:51:25;99816.16;;;0.70;100.00
46023;BME280;31756;47.936;16.224;2023-01-23T01:54:16;99805.81;;;0.64;100.00
46023;BME280;31756;47.936;16.224;2023-01-23T01:56:50;99797.56;;;0.68;100.00
46023;BME280;31756;47.936;16.224;2023-01-23T01:59:16;99805.38;;;0.74;100.00
46023;BME280;31756;47.936;16.224;2023-01-23T02:01:43;99801.09;;;0.72;100.00
46023;BME280;31756;47.936;16.224;2023-01-23T02:04:10;99805.38;;;0.74;100.00
46023;BME280;31756;47.936;16.224;2023-01-23T02:06:36;99800.44;;;0.77;100.00
46023;BME280;31756;47.936;16.224;2023-01-23T02:09:03;99782.38;;;0.67;100.00
46023;BME280;31756;47.936;16.224;2023-01-23T02:11:30;99796.66;;;0.66;100.00
46023;BME280;31756;47.936;16.224;2023-01-23T02:13:55;99794.13;;;0.66;100.00
46023;BME280;31756;47.936;16.224;2023-01-23T02:16:25;99774.06;;;0.69;100.00
46023;BME280;31756;47.936;16.224;2023-01-23T02:18:56;99768.28;;;0.72;100.00
46023;BME280;31756;47.936;16.224;2023-01-23T02:21:22;99766.31;;;0.65;100.00
46023;BME280;31756;47.936;16.224;2023-01-23T02:26:26;99785.81;;;0.69;100.00
46023;BME280;31756;47.936;16.224;2023-01-23T02:28:53;99793.53;;;0.72;100.00
46023;BME280;31756;47.936;16.224;2023-01-23T02:31:24;99778.31;;;0.70;100.00
46023;BME280;31756;47.936;16.224;2023-01-23T02:33:50;99786.22;;;0.79;100.00
46023;BME280;31756;47.936;16.224;2023-01-23T02:36:17;99796.22;;;0.76;100.00
46023;BME280;31756;47.936;16.224;2023-01-23T02:38:48;99794.59;;;0.78;100.00
46023;BME280;31756;47.936;16.224;2023-01-23T02:41:17;99796.53;;;0.85;100.00
46023;BME280;31756;47.936;16.224;2023-01-23T02:43:47;99796.44;;;0.82;100.00
46023;BME280;31756;47.936;16.224;2023-01-23T02:46:13;99806.53;;;0.82;100.00
46023;BME280;31756;47.936;16.224;2023-01-23T02:48:40;99799.13;;;0.87;100.00
46023;BME280;31756;47.936;16.224;2023-01-23T02:51:08;99792.19;;;0.81;100.00
46023;BME280;31756;47.936;16.224;2023-01-23T02:53:33;99803.16;;;0.82;100.00
46023;BME280;31756;47.936;16.224;2023-01-23T02:55:59;99802.34;;;0.83;100.00
46023;BME280;31756;47.936;16.224;2023-01-23T02:58:25;99807.31;;;0.81;100.00
46023;BME280;31756;47.936;16.224;2023-01-23T03:01:09;99808.94;;;0.79;100.00
46023;BME280;31756;47.936;16.224;2023-01-23T03:03:37;99815.84;;;0.83;100.00
46023;BME280;31756;47.936;16.224;2023-01-23T03:06:06;99819.03;;;0.79;100.00
46023;BME280;31756;47.936;16.224;2023-01-23T03:08:31;99828.38;;;0.82;100.00
46023;BME280;31756;47.936;16.224;2023-01-23T03:11:01;99832.72;;;0.84;100.00
46023;BME280;31756;47.936;16.224;2023-01-23T03:13:27;99827.53;;;0.81;100.00
46023;BME280;31756;47.936;16.224;2023-01-23T03:15:54;99829.25;;;0.82;100.00
46023;BME280;31756;47.936;16.224;2023-01-23T03:18:22;99827.19;;;0.95;100.00
46023;BME280;31756;47.936;16.224;2023-01-23T03:20:47;99816.19;;;0.93;100.00
46023;BME280;31756;47.936;16.224;2023-01-23T03:23:13;99797.47;;;0.87;100.00
46023;BME280;31756;47.936;16.224;2023-01-23T03:25:42;99798.28;;;0.86;100.00
46023;BME280;31756;47.936;16.224;2023-01-23T03:28:08;99797.59;;;0.90;100.00
46023;BME280;31756;47.936;16.224;2023-01-23T03:30:53;99788.78;;;0.81;100.00
46023;BME280;31756;47.936;16.224;2023-01-23T03:33:19;99803.09;;;0.80;100.00
46023;BME280;31756;47.936;16.224;2023-01-23T03:35:45;99811.75;;;0.87;100.00
46023;BME280;31756;47.936;16.224;2023-01-23T03:38:10;99814.03;;;0.81;100.00
46023;BME280;31756;47.936;16.224;2023-01-23T03:40:35;99814.78;;;0.78;100.00
46023;BME280;31756;47.936;16.224;2023-01-23T03:43:20;99805.66;;;0.82;100.00
46023;BME280;31756;47.936;16.224;2023-01-23T03:45:47;99808.94;;;0.79;100.00
46023;BME280;31756;47.936;16.224;2023-01-23T03:48:13;99815.03;;;0.84;100.00
46023;BME280;31756;47.936;16.224;2023-01-23T03:50:39;99796.53;;;0.85;100.00
46023;BME280;31756;47.936;16.224;2023-01-23T03:53:04;99794.72;;;0.81;100.00
46023;BME280;31756;47.936;16.224;2023-01-23T03:55:30;99811.50;;;0.81;100.00
46023;BME280;31756;47.936;16.224;2023-01-23T03:57:56;99807.66;;;0.89;100.00
46023;BME280;31756;47.936;16.224;2023-01-23T04:00:25;99797.31;;;0.83;100.00
46023;BME280;31756;47.936;16.224;2023-01-23T04:03:03;99802.75;;;0.93;100.00
46023;BME280;31756;47.936;16.224;2023-01-23T04:05:29;99814.56;;;0.95;100.00
46023;BME280;31756;47.936;16.224;2023-01-23T04:07:54;99818.94;;;0.99;100.00
46023;BME280;31756;47.936;16.224;2023-01-23T04:10:19;99828.50;;;1.07;100.00
46023;BME280;31756;47.936;16.224;2023-01-23T04:12:50;99823.94;;;0.97;100.00
46023;BME280;31756;47.936;16.224;2023-01-23T04:15:16;99821.63;;;1.03;100.00
46023;BME280;31756;47.936;16.224;2023-01-23T04:17:43;99817.88;;;0.93;100.00
46023;BME280;31756;47.936;16.224;2023-01-23T04:20:11;99811.75;;;0.87;100.00
46023;BME280;31756;47.936;16.224;2023-01-23T04:22:39;99809.41;;;0.91;100.00
46023;BME280;31756;47.936;16.224;2023-01-23T04:25:05;99818.06;;;0.98;100.00
46023;BME280;31756;47.936;16.224;2023-01-23T04:27:31;99822.81;;;0.90;100.00
46023;BME280;31756;47.936;16.224;2023-01-23T04:29:57;99820.19;;;0.87;100.00
46023;BME280;31756;47.936;16.224;2023-01-23T04:32:25;99812.69;;;0.89;100.00
46023;BME280;31756;47.936;16.224;2023-01-23T04:34:51;99807.69;;;0.90;100.00
46023;BME280;31756;47.936;16.224;2023-01-23T04:37:17;99809.59;;;0.96;100.00
46023;BME280;31756;47.936;16.224;2023-01-23T04:39:43;99813.66;;;0.93;100.00
46023;BME280;31756;47.936;16.224;2023-01-23T04:42:09;99799.91;;;0.84;100.00
46023;BME280;31756;47.936;16.224;2023-01-23T04:44:59;99798.91;;;0.81;100.00
46023;BME280;31756;47.936;16.224;2023-01-23T04:47:25;99796.31;;;0.79;100.00
46023;BME280;31756;47.936;16.224;2023-01-23T04:49:51;99791.91;;;0.74;100.00
46023;BME280;31756;47.936;16.224;2023-01-23T04:52:16;99794.50;;;0.75;100.00
46023;BME280;31756;47.936;16.224;2023-01-23T04:54:51;99805.50;;;0.77;100.00
46023;BME280;31756;47.936;16.224;2023-01-23T04:57:16;99799.66;;;0.78;100.00
46023;BME280;31756;47.936;16.224;2023-01-23T04:59:43;99791.81;;;0.72;100.00
46023;BME280;31756;47.936;16.224;2023-01-23T05:02:08;99783.28;;;0.69;100.00
46023;BME280;31756;47.936;16.224;2023-01-23T05:04:39;99786.28;;;0.59;100.00
46023;BME280;31756;47.936;16.224;2023-01-23T05:07:09;99787.00;;;0.56;100.00
46023;BME280;31756;47.936;16.224;2023-01-23T05:09:40;99787.88;;;0.57;100.00
46023;BME280;31756;47.936;16.224;2023-01-23T05:12:07;99768.47;;;0.56;100.00
46023;BME280;31756;47.936;16.224;2023-01-23T05:14:36;99774.16;;;0.50;100.00
46023;BME280;31756;47.936;16.224;2023-01-23T05:17:01;99765.63;;;0.47;100.00
46023;BME280;31756;47.936;16.224;2023-01-23T05:19:34;99770.47;;;0.42;100.00
46023;BME280;31756;47.936;16.224;2023-01-23T05:22:05;99752.75;;;0.40;100.00
46023;BME280;31756;47.936;16.224;2023-01-23T05:24:30;99769.38;;;0.35;100.00
46023;BME280;31756;47.936;16.224;2023-01-23T05:26:56;99774.22;;;0.31;100.00
46023;BME280;31756;47.936;16.224;2023-01-23T05:29:24;99764.88;;;0.28;100.00
46023;BME280;31756;47.936;16.224;2023-01-23T05:32:01;99781.75;;;0.29;100.00
46023;BME280;31756;47.936;16.224;2023-01-23T05:34:36;99786.13;;;0.33;100.00
46023;BME280;31756;47.936;16.224;2023-01-23T05:37:05;99785.44;;;0.37;100.00
46023;BME280;31756;47.936;16.224;2023-01-23T05:39:33;99797.19;;;0.37;100.00
46023;BME280;31756;47.936;16.224;2023-01-23T05:41:59;99800.69;;;0.40;100.00
46023;BME280;31756;47.936;16.224;2023-01-23T05:44:25;99804.00;;;0.39;100.00
46023;BME280;31756;47.936;16.224;2023-01-23T05:46:55;99805.66;;;0.39;100.00
46023;BME280;31756;47.936;16.224;2023-01-23T05:49:20;99808.34;;;0.64;100.00
46023;BME280;31756;47.936;16.224;2023-01-23T05:51:46;99826.19;;;0.69;100.00
46023;BME280;31756;47.936;16.224;2023-01-23T05:54:12;99837.22;;;0.71;100.00
46023;BME280;31756;47.936;16.224;2023-01-23T05:56:41;99848.03;;;0.68;100.00
46023;BME280;31756;47.936;16.224;2023-01-23T05:59:25;99851.38;;;0.67;100.00
46023;BME280;31756;47.936;16.224;2023-01-23T06:02:02;99864.84;;;0.68;100.00
46023;BME280;31756;47.936;16.224;2023-01-23T06:04:47;99868.47;;;0.74;100.00
46023;BME280;31756;47.936;16.224;2023-01-23T06:07:22;99863.69;;;0.80;100.00
46023;BME280;31756;47.936;16.224;2023-01-23T06:09:50;99861.44;;;0.88;100.00
46023;BME280;31756;47.936;16.224;2023-01-23T06:12:16;99864.88;;;0.90;100.00
46023;BME280;31756;47.936;16.224;2023-01-23T06:14:42;99875.31;;;0.98;100.00
46023;BME280;31756;47.936;16.224;2023-01-23T06:17:07;99868.38;;;0.93;100.00
46023;BME280;31756;47.936;16.224;2023-01-23T06:19:33;99882.13;;;1.00;100.00
46023;BME280;31756;47.936;16.224;2023-01-23T06:21:59;99881.19;;;0.98;100.00
46023;BME280;31756;47.936;16.224;2023-01-23T06:24:28;99884.63;;;1.00;100.00
46023;BME280;31756;47.936;16.224;2023-01-23T06:26:54;99891.59;;;1.06;100.00
46023;BME280;31756;47.936;16.224;2023-01-23T06:29:21;99889.75;;;1.02;100.00
46023;BME280;31756;47.936;16.224;2023-01-23T06:31:46;99897.56;;;1.08;100.00
46023;BME280;31756;47.936;16.224;2023-01-23T06:34:12;99899.03;;;1.03;100.00
46023;BME280;31756;47.936;16.224;2023-01-23T06:36:43;99897.25;;;1.00;100.00
46023;BME280;31756;47.936;16.224;2023-01-23T06:39:10;99892.72;;;0.91;100.00
46023;BME280;31756;47.936;16.224;2023-01-23T06:41:39;99892.59;;;0.88;100.00
46023;BME280;31756;47.936;16.224;2023-01-23T06:44:06;99894.88;;;0.82;100.00
46023;BME280;31756;47.936;16.224;2023-01-23T06:46:32;99894.19;;;0.86;100.00
46023;BME280;31756;47.936;16.224;2023-01-23T06:48:57;99905.91;;;0.84;100.00
46023;BME280;31756;47.936;16.224;2023-01-23T06:51:23;99918.72;;;0.89;100.00
46023;BME280;31756;47.936;16.224;2023-01-23T06:53:48;99932.44;;;0.75;100.00
46023;BME280;31756;47.936;16.224;2023-01-23T06:56:14;99926.59;;;0.76;100.00
46023;BME280;31756;47.936;16.224;2023-01-23T06:58:42;99932.13;;;0.67;100.00
46023;BME280;31756;47.936;16.224;2023-01-23T07:01:16;99938.69;;;0.64;100.00
46023;BME280;31756;47.936;16.224;2023-01-23T07:04:11;99942.06;;;0.64;100.00
46023;BME280;31756;47.936;16.224;2023-01-23T07:06:38;99946.41;;;0.67;100.00
46023;BME280;31756;47.936;16.224;2023-01-23T07:09:04;99942.22;;;0.67;100.00
46023;BME280;31756;47.936;16.224;2023-01-23T07:11:29;99941.94;;;0.61;100.00
46023;BME280;31756;47.936;16.224;2023-01-23T07:13:55;99941.75;;;0.57;100.00
46023;BME280;31756;47.936;16.224;2023-01-23T07:16:21;99941.03;;;0.59;100.00
46023;BME280;31756;47.936;16.224;2023-01-23T07:18:47;99936.22;;;0.65;100.00
46023;BME280;31756;47.936;16.224;2023-01-23T07:21:12;99921.75;;;0.61;100.00
46023;BME280;31756;47.936;16.224;2023-01-23T07:23:38;99915.75;;;0.58;100.00
46023;BME280;31756;47.936;16.224;2023-01-23T07:26:04;99914.97;;;0.39;100.00
46023;BME280;31756;47.936;16.224;2023-01-23T07:28:34;99908.16;;;0.37;100.00
46023;BME280;31756;47.936;16.224;2023-01-23T07:30:59;99919.31;;;0.42;100.00
46023;BME280;31756;47.936;16.224;2023-01-23T07:33:25;99920.28;;;0.45;100.00
46023;BME280;31756;47.936;16.224;2023-01-23T07:35:50;99936.31;;;0.47;100.00
46023;BME280;31756;47.936;16.224;2023-01-23T07:38:16;99921.38;;;0.52;100.00
46023;BME280;31756;47.936;16.224;2023-01-23T07:40:41;99914.88;;;0.57;100.00
46023;BME280;31756;47.936;16.224;2023-01-23T07:43:08;99902.94;;;0.53;100.00
46023;BME280;31756;47.936;16.224;2023-01-23T07:45:34;99894.19;;;0.45;100.00
46023;BME280;31756;47.936;16.224;2023-01-23T07:47:59;99893.13;;;0.40;100.00
46023;BME280;31756;47.936;16.224;2023-01-23T07:50:25;99894.00;;;0.40;100.00
46023;BME280;31756;47.936;16.224;2023-01-23T07:52:51;99898.09;;;0.38;100.00
46023;BME280;31756;47.936;16.224;2023-01-23T07:55:17;99905.94;;;0.44;100.00
46023;BME280;31756;47.936;16.224;2023-01-23T07:57:43;99906.13;;;0.49;100.00
46023;BME280;31756;47.936;16.224;2023-01-23T08:00:09;99926.22;;;0.47;100.00
46023;BME280;31756;47.936;16.224;2023-01-23T08:02:37;99930.09;;;0.59;100.00
46023;BME280;31756;47.936;16.224;2023-01-23T08:05:03;99943.81;;;0.65;100.00
46023;BME280;31756;47.936;16.224;2023-01-23T08:07:28;99933.72;;;0.65;100.00
46023;BME280;31756;47.936;16.224;2023-01-23T08:09:54;99946.44;;;0.68;100.00
46023;BME280;31756;47.936;16.224;2023-01-23T08:12:19;99953.03;;;0.65;100.00
46023;BME280;31756;47.936;16.224;2023-01-23T08:14:46;99959.06;;;0.68;100.00
46023;BME280;31756;47.936;16.224;2023-01-23T08:17:11;99965.94;;;0.72;100.00
46023;BME280;31756;47.936;16.224;2023-01-23T08:19:37;99968.75;;;0.78;100.00
46023;BME280;31756;47.936;16.224;2023-01-23T08:22:03;99973.13;;;0.82;100.00
46023;BME280;31756;47.936;16.224;2023-01-23T08:24:28;99968.66;;;0.77;100.00
46023;BME280;31756;47.936;16.224;2023-01-23T08:26:54;99975.56;;;0.81;100.00
46023;BME280;31756;47.936;16.224;2023-01-23T08:29:19;99970.50;;;0.81;100.00
46023;BME280;31756;47.936;16.224;2023-01-23T08:31:45;99962.03;;;0.79;100.00
46023;BME280;31756;47.936;16.224;2023-01-23T08:34:10;99971.16;;;0.75;100.00
46023;BME280;31756;47.936;16.224;2023-01-23T08:36:36;99965.91;;;0.71;100.00
46023;BME280;31756;47.936;16.224;2023-01-23T08:39:02;99971.66;;;0.68;100.00
46023;BME280;31756;47.936;16.224;2023-01-23T08:41:27;99965.84;;;0.69;100.00
46023;BME280;31756;47.936;16.224;2023-01-23T08:43:53;99968.47;;;0.72;100.00
46023;BME280;31756;47.936;16.224;2023-01-23T08:46:19;99961.84;;;0.74;100.00
46023;BME280;31756;47.936;16.224;2023-01-23T08:48:44;99963.19;;;0.66;100.00
46023;BME280;31756;47.936;16.224;2023-01-23T08:51:10;99958.22;;;0.68;100.00
46023;BME280;31756;47.936;16.224;2023-01-23T08:53:37;99963.59;;;0.56;100.00
46023;BME280;31756;47.936;16.224;2023-01-23T08:56:03;99960.09;;;0.53;100.00
46023;BME280;31756;47.936;16.224;2023-01-23T08:58:29;99966.56;;;0.46;100.00
46023;BME280;31756;47.936;16.224;2023-01-23T09:00:55;99965.53;;;0.42;100.00
46023;BME280;31756;47.936;16.224;2023-01-23T09:03:20;99964.31;;;0.33;100.00
46023;BME280;31756;47.936;16.224;2023-01-23T09:05:46;99957.66;;;0.35;100.00
46023;BME280;31756;47.936;16.224;2023-01-23T09:08:12;99951.06;;;0.38;100.00
46023;BME280;31756;47.936;16.224;2023-01-23T09:10:37;99951.34;;;0.44;100.00
46023;BME280;31756;47.936;16.224;2023-01-23T09:13:03;99949.41;;;0.39;100.00
46023;BME280;31756;47.936;16.224;2023-01-23T09:15:28;99946.50;;;0.30;100.00
46023;BME280;31756;47.936;16.224;2023-01-23T09:17:54;99941.72;;;0.36;100.00
46023;BME280;31756;47.936;16.224;2023-01-23T09:20:19;99941.94;;;0.40;100.00
46023;BME280;31756;47.936;16.224;2023-01-23T09:22:45;99942.47;;;0.33;100.00
46023;BME280;31756;47.936;16.224;2023-01-23T09:25:11;99946.56;;;0.31;100.00
46023;BME280;31756;47.936;16.224;2023-01-23T09:27:37;99950.09;;;0.35;100.00
46023;BME280;31756;47.936;16.224;2023-01-23T09:30:03;99949.22;;;0.34;100.00
46023;BME280;31756;47.936;16.224;2023-01-23T09:32:31;99950.94;;;0.35;100.00
46023;BME280;31756;47.936;16.224;2023-01-23T09:34:57;99950.41;;;0.42;100.00
46023;BME280;31756;47.936;16.224;2023-01-23T09:37:22;99949.56;;;0.42;100.00
46023;BME280;31756;47.936;16.224;2023-01-23T09:39:48;99953.31;;;0.52;100.00
46023;BME280;31756;47.936;16.224;2023-01-23T09:42:17;99960.28;;;0.57;100.00
46023;BME280;31756;47.936;16.224;2023-01-23T09:44:46;99961.91;;;0.55;100.00
46023;BME280;31756;47.936;16.224;2023-01-23T09:50:00;99965.94;;;0.72;100.00
46023;BME280;31756;47.936;16.224;2023-01-23T09:52:38;99969.53;;;0.98;100.00
46023;BME280;31756;47.936;16.224;2023-01-23T09:55:11;99970.28;;;0.96;100.00
46023;BME280;31756;47.936;16.224;2023-01-23T09:57:41;99972.94;;;0.99;100.00
46023;BME280;31756;47.936;16.224;2023-01-23T10:02:36;99965.81;;;1.09;100.00
46023;BME280;31756;47.936;16.224;2023-01-23T10:05:02;99965.13;;;1.13;100.00
46023;BME280;31756;47.936;16.224;2023-01-23T10:22:31;99981.25;;;1.17;100.00
46023;BME280;31756;47.936;16.224;2023-01-23T10:24:58;99973.41;;;1.11;100.00
46023;BME280;31756;47.936;16.224;2023-01-23T10:27:44;99980.31;;;1.15;100.00
46023;BME280;31756;47.936;16.224;2023-01-23T10:32:42;99965.72;;;1.08;100.00
46023;BME280;31756;47.936;16.224;2023-01-23T10:35:14;99948.66;;;1.02;100.00
46023;BME280;31756;47.936;16.224;2023-01-23T10:37:47;99945.41;;;1.05;100.00
46023;BME280;31756;47.936;16.224;2023-01-23T10:40:21;99937.34;;;1.13;100.00
46023;BME280;31756;47.936;16.224;2023-01-23T10:43:13;99929.81;;;1.15;100.00
46023;BME280;31756;47.936;16.224;2023-01-23T10:45:39;99923.59;;;1.07;100.00
46023;BME280;31756;47.936;16.224;2023-01-23T10:50:57;99931.25;;;1.08;100.00
46023;BME280;31756;47.936;16.224;2023-01-23T10:53:23;99921.25;;;1.11;100.00
46023;BME280;31756;47.936;16.224;2023-01-23T10:55:49;99926.75;;;1.22;100.00
46023;BME280;31756;47.936;16.224;2023-01-23T10:58:48;99933.19;;;1.15;100.00
46023;BME280;31756;47.936;16.224;2023-01-23T11:01:21;99931.44;;;1.13;100.00
46023;BME280;31756;47.936;16.224;2023-01-23T11:03:49;99933.66;;;1.27;100.00
46023;BME280;31756;47.936;16.224;2023-01-23T11:06:17;99940.22;;;1.22;100.00
46023;BME280;31756;47.936;16.224;2023-01-23T11:11:21;99937.63;;;1.21;100.00
46023;BME280;31756;47.936;16.224;2023-01-23T11:13:49;99931.72;;;1.20;100.00
46023;BME280;31756;47.936;16.224;2023-01-23T11:16:21;99936.84;;;1.22;100.00
46023;BME280;31756;47.936;16.224;2023-01-23T11:18:52;99930.06;;;1.21;100.00
46023;BME280;31756;47.936;16.224;2023-01-23T11:21:22;99933.19;;;1.15;100.00
46023;BME280;31756;47.936;16.224;2023-01-23T11:23:48;99925.59;;;1.14;100.00
46023;BME280;31756;47.936;16.224;2023-01-23T11:26:29;99915.69;;;1.20;100.00
46023;BME280;31756;47.936;16.224;2023-01-23T11:28:56;99889.91;;;1.06;100.00
46023;BME280;31756;47.936;16.224;2023-01-23T11:31:21;99880.00;;;1.11;100.00
46023;BME280;31756;47.936;16.224;2023-01-23T11:41:28;99885.72;;;1.07;100.00
46023;BME280;31756;47.936;16.224;2023-01-23T11:43:54;99891.59;;;1.06;100.00
46023;BME280;31756;47.936;16.224;2023-01-23T11:46:39;99888.22;;;1.05;100.00
46023;BME280;31756;47.936;16.224;2023-01-23T11:51:45;99889.91;;;1.27;100.00
46023;BME280;31756;47.936;16.224;2023-01-23T11:59:26;99885.75;;;1.29;100.00
46023;BME280;31756;47.936;16.224;2023-01-23T12:07:15;99892.53;;;1.30;100.00
46023;BME280;31756;47.936;16.224;2023-01-23T12:12:44;99888.84;;;1.22;100.00
46023;BME280;31756;47.936;16.224;2023-01-23T12:20:20;99864.16;;;1.15;100.00
46023;BME280;31756;47.936;16.224;2023-01-23T12:25:24;99861.69;;;1.16;100.00
46023;BME280;31756;47.936;16.224;2023-01-23T12:28:05;99861.75;;;1.18;100.00
46023;BME280;31756;47.936;16.224;2023-01-23T12:33:33;99862.63;;;1.18;100.00
46023;BME280;31756;47.936;16.224;2023-01-23T12:38:23;99863.50;;;1.19;100.00
46023;BME280;31756;47.936;16.224;2023-01-23T12:46:12;99866.13;;;1.22;100.00
46023;BME280;31756;47.936;16.224;2023-01-23T12:48:45;99867.84;;;1.23;100.00
46023;BME280;31756;47.936;16.224;2023-01-23T12:51:15;99886.38;;;1.23;100.00
46023;BME280;31756;47.936;16.224;2023-01-23T12:53:43;99886.03;;;1.14;100.00
46023;BME280;31756;47.936;16.224;2023-01-23T12:56:19;99877.34;;;1.08;100.00
46023;BME280;31756;47.936;16.224;2023-01-23T12:58:52;99871.41;;;1.06;100.00
46023;BME280;31756;47.936;16.224;2023-01-23T13:01:35;99873.25;;;1.10;100.00
46023;BME280;31756;47.936;16.224;2023-01-23T13:09:26;99875.88;;;1.13;100.00
46023;BME280;31756;47.936;16.224;2023-01-23T13:14:43;99864.72;;;1.08;100.00
46023;BME280;31756;47.936;16.224;2023-01-23T13:23:20;99870.47;;;1.26;100.00
46023;BME280;31756;47.936;16.224;2023-01-23T13:25:46;99867.34;;;1.31;100.00
46023;BME280;31756;47.936;16.224;2023-01-23T13:31:00;99863.94;;;1.31;100.00
46023;BME280;31756;47.936;16.224;2023-01-23T13:36:10;99861.19;;;1.25;100.00
46023;BME280;31756;47.936;16.224;2023-01-23T13:38:38;99864.06;;;1.34;100.00
46023;BME280;31756;47.936;16.224;2023-01-23T13:51:47;99871.72;;;1.37;100.00
46023;BME280;31756;47.936;16.224;2023-01-23T13:54:19;99862.56;;;1.39;100.00
46023;BME280;31756;47.936;16.224;2023-01-23T13:57:25;99873.53;;;1.40;100.00
46023;BME280;31756;47.936;16.224;2023-01-23T13:59:51;99873.22;;;1.32;100.00
46023;BME280;31756;47.936;16.224;2023-01-23T14:05:15;99871.72;;;1.37;100.00
46023;BME280;31756;47.936;16.224;2023-01-23T14:07:44;99864.84;;;1.33;100.00
46023;BME280;31756;47.936;16.224;2023-01-23T14:10:16;99863.88;;;1.29;100.00
46023;BME280;31756;47.936;16.224;2023-01-23T14:12:42;99857.25;;;1.31;100.00
46023;BME280;31756;47.936;16.224;2023-01-23T14:18:01;99869.22;;;1.37;100.00
46023;BME280;31756;47.936;16.224;2023-01-23T14:20:29;99887.13;;;1.43;100.00
46023;BME280;31756;47.936;16.224;2023-01-23T14:22:56;99883.56;;;1.38;100.00
46023;BME280;31756;47.936;16.224;2023-01-23T14:25:21;99884.63;;;1.43;100.00
46023;BME280;31756;47.936;16.224;2023-01-23T14:27:47;99873.63;;;1.43;100.00
46023;BME280;31756;47.936;16.224;2023-01-23T14:30:17;99878.16;;;1.51;100.00
46023;BME280;31756;47.936;16.224;2023-01-23T14:32:43;99893.97;;;1.46;100.00
46023;BME280;31756;47.936;16.224;2023-01-23T14:35:23;99884.63;;;1.43;100.00
46023;BME280;31756;47.936;16.224;2023-01-23T14:37:49;99900.75;;;1.47;100.00
46023;BME280;31756;47.936;16.224;2023-01-23T14:40:18;99905.72;;;1.45;100.00
46023;BME280;31756;47.936;16.224;2023-01-23T14:42:44;99906.59;;;1.46;100.00
46023;BME280;31756;47.936;16.224;2023-01-23T14:45:11;99909.19;;;1.47;100.00
46023;BME280;31756;47.936;16.224;2023-01-23T14:47:39;99894.56;;;1.40;100.00